sensor_id;sensor_type;location;lat;lon;timestamp;P1;durP1;ratioP1;P2;durP2;ratioP2
72559;SDS011;62987;52.382;9.752;2023-11-18T00:02:56;13.48;;;6.13;;
72559;SDS011;62987;52.382;9.752;2023-11-18T00:08:39;19.80;;;9.32;;
72559;SDS011;62987;52.382;9.752;2023-11-18T00:11:08;17.60;;;8.82;;
72559;SDS011;62987;52.382;9.752;2023-11-18T00:13:37;20.10;;;8.02;;
72559;SDS011;62987;52.382;9.752;2023-11-18T00:16:06;19.25;;;10.20;;
72559;SDS011;62987;52.382;9.752;2023-11-18T00:18:39;21.00;;;9.55;;
72559;SDS011;62987;52.382;9.752;2023-11-18T00:21:07;19.45;;;10.40;;
72559;SDS011;62987;52.382;9.752;2023-11-18T00:23:36;18.90;;;9.65;;
72559;SDS011;62987;52.382;9.752;2023-11-18T00:26:16;16.13;;;8.90;;
72559;SDS011;62987;52.382;9.752;2023-11-18T00:31:17;19.45;;;9.45;;
72559;SDS011;62987;52.382;9.752;2023-11-18T00:33:45;16.13;;;9.05;;
72559;SDS011;62987;52.382;9.752;2023-11-18T00:36:14;24.83;;;9.98;;
72559;SDS011;62987;52.382;9.752;2023-11-18T00:38:42;18.13;;;9.02;;
72559;SDS011;62987;52.382;9.752;2023-11-18T00:41:11;19.60;;;8.52;;
72559;SDS011;62987;52.382;9.752;2023-11-18T00:43:41;19.05;;;8.52;;
72559;SDS011;62987;52.382;9.752;2023-11-18T00:46:09;19.77;;;8.93;;
72559;SDS011;62987;52.382;9.752;2023-11-18T00:48:38;18.30;;;9.95;;
72559;SDS011;62987;52.382;9.752;2023-11-18T00:51:09;17.85;;;9.30;;
72559;SDS011;62987;52.382;9.752;2023-11-18T00:53:37;21.63;;;8.65;;
72559;SDS011;62987;52.382;9.752;2023-11-18T00:56:06;21.58;;;8.48;;
72559;SDS011;62987;52.382;9.752;2023-11-18T00:58:36;19.23;;;9.05;;
72559;SDS011;62987;52.382;9.752;2023-11-18T01:01:08;18.45;;;9.00;;
72559;SDS011;62987;52.382;9.752;2023-11-18T01:03:37;22.15;;;9.60;;
72559;SDS011;62987;52.382;9.752;2023-11-18T01:06:06;22.85;;;10.25;;
72559;SDS011;62987;52.382;9.752;2023-11-18T01:08:35;22.33;;;9.77;;
72559;SDS011;62987;52.382;9.752;2023-11-18T01:11:04;18.85;;;10.02;;
72559;SDS011;62987;52.382;9.752;2023-11-18T01:13:32;18.15;;;8.60;;
72559;SDS011;62987;52.382;9.752;2023-11-18T01:18:17;22.05;;;8.48;;
72559;SDS011;62987;52.382;9.752;2023-11-18T01:20:46;20.55;;;8.50;;
72559;SDS011;62987;52.382;9.752;2023-11-18T01:24:31;17.63;;;8.45;;
72559;SDS011;62987;52.382;9.752;2023-11-18T01:29:57;15.27;;;7.88;;
72559;SDS011;62987;52.382;9.752;2023-11-18T01:33:04;20.30;;;9.55;;
72559;SDS011;62987;52.382;9.752;2023-11-18T01:38:50;26.40;;;9.85;;
72559;SDS011;62987;52.382;9.752;2023-11-18T01:42:48;30.60;;;15.00;;
72559;SDS011;62987;52.382;9.752;2023-11-18T01:45:36;29.80;;;13.93;;
72559;SDS011;62987;52.382;9.752;2023-11-18T01:48:54;23.85;;;10.27;;
72559;SDS011;62987;52.382;9.752;2023-11-18T01:54:23;27.25;;;12.27;;
72559;SDS011;62987;52.382;9.752;2023-11-18T01:57:46;30.15;;;13.18;;
72559;SDS011;62987;52.382;9.752;2023-11-18T02:00:52;27.92;;;12.77;;
72559;SDS011;62987;52.382;9.752;2023-11-18T02:04:07;27.50;;;12.77;;
72559;SDS011;62987;52.382;9.752;2023-11-18T02:09:24;31.60;;;14.70;;
72559;SDS011;62987;52.382;9.752;2023-11-18T02:14:42;29.90;;;12.32;;
72559;SDS011;62987;52.382;9.752;2023-11-18T02:17:54;26.17;;;12.57;;
72559;SDS011;62987;52.382;9.752;2023-11-18T02:21:01;29.23;;;12.40;;
72559;SDS011;62987;52.382;9.752;2023-11-18T02:26:56;27.45;;;12.63;;
72559;SDS011;62987;52.382;9.752;2023-11-18T02:30:00;38.53;;;15.25;;
72559;SDS011;62987;52.382;9.752;2023-11-18T02:33:10;30.77;;;14.35;;
72559;SDS011;62987;52.382;9.752;2023-11-18T02:36:25;30.67;;;13.63;;
72559;SDS011;62987;52.382;9.752;2023-11-18T02:43:29;27.67;;;12.00;;
72559;SDS011;62987;52.382;9.752;2023-11-18T02:46:43;26.63;;;11.90;;
72559;SDS011;62987;52.382;9.752;2023-11-18T02:49:12;32.78;;;12.95;;
72559;SDS011;62987;52.382;9.752;2023-11-18T02:55:26;25.75;;;13.00;;
72559;SDS011;62987;52.382;9.752;2023-11-18T02:58:30;27.73;;;13.45;;
72559;SDS011;62987;52.382;9.752;2023-11-18T03:04:12;23.27;;;9.63;;
72559;SDS011;62987;52.382;9.752;2023-11-18T03:07:19;24.70;;;11.82;;
72559;SDS011;62987;52.382;9.752;2023-11-18T03:10:35;28.10;;;11.90;;
72559;SDS011;62987;52.382;9.752;2023-11-18T03:16:10;26.85;;;14.23;;
72559;SDS011;62987;52.382;9.752;2023-11-18T03:19:30;32.35;;;14.52;;
72559;SDS011;62987;52.382;9.752;2023-11-18T03:22:39;32.63;;;13.68;;
72559;SDS011;62987;52.382;9.752;2023-11-18T03:25:57;27.38;;;12.52;;
72559;SDS011;62987;52.382;9.752;2023-11-18T03:31:26;38.30;;;14.80;;
72559;SDS011;62987;52.382;9.752;2023-11-18T03:34:46;37.75;;;14.90;;
72559;SDS011;62987;52.382;9.752;2023-11-18T03:56:00;37.88;;;15.35;;
72559;SDS011;62987;52.382;9.752;2023-11-18T04:01:27;35.25;;;14.45;;
72559;SDS011;62987;52.382;9.752;2023-11-18T04:04:45;30.25;;;13.77;;
72559;SDS011;62987;52.382;9.752;2023-11-18T04:07:14;25.83;;;11.68;;
72559;SDS011;62987;52.382;9.752;2023-11-18T04:09:43;32.15;;;13.07;;
72559;SDS011;62987;52.382;9.752;2023-11-18T04:12:11;32.00;;;12.40;;
72559;SDS011;62987;52.382;9.752;2023-11-18T04:14:39;31.60;;;12.82;;
72559;SDS011;62987;52.382;9.752;2023-11-18T04:17:07;32.83;;;13.52;;
72559;SDS011;62987;52.382;9.752;2023-11-18T04:19:36;29.23;;;13.32;;
72559;SDS011;62987;52.382;9.752;2023-11-18T04:22:07;28.42;;;13.75;;
72559;SDS011;62987;52.382;9.752;2023-11-18T04:24:37;32.70;;;13.80;;
72559;SDS011;62987;52.382;9.752;2023-11-18T04:27:05;27.10;;;12.25;;
72559;SDS011;62987;52.382;9.752;2023-11-18T04:29:34;28.90;;;12.57;;
72559;SDS011;62987;52.382;9.752;2023-11-18T04:32:04;30.05;;;12.50;;
72559;SDS011;62987;52.382;9.752;2023-11-18T04:34:34;32.50;;;13.55;;
72559;SDS011;62987;52.382;9.752;2023-11-18T04:37:03;29.90;;;14.80;;
72559;SDS011;62987;52.382;9.752;2023-11-18T04:39:34;25.23;;;12.45;;
72559;SDS011;62987;52.382;9.752;2023-11-18T04:42:03;26.95;;;11.85;;
72559;SDS011;62987;52.382;9.752;2023-11-18T04:44:32;30.10;;;11.95;;
72559;SDS011;62987;52.382;9.752;2023-11-18T04:47:01;29.25;;;12.68;;
72559;SDS011;62987;52.382;9.752;2023-11-18T04:49:30;27.40;;;13.23;;
72559;SDS011;62987;52.382;9.752;2023-11-18T04:51:58;25.85;;;12.18;;
72559;SDS011;62987;52.382;9.752;2023-11-18T04:54:27;32.50;;;15.00;;
72559;SDS011;62987;52.382;9.752;2023-11-18T04:56:56;33.15;;;15.07;;
72559;SDS011;62987;52.382;9.752;2023-11-18T04:59:25;29.67;;;13.02;;
72559;SDS011;62987;52.382;9.752;2023-11-18T05:01:53;30.08;;;14.75;;
72559;SDS011;62987;52.382;9.752;2023-11-18T05:04:21;24.45;;;12.05;;
72559;SDS011;62987;52.382;9.752;2023-11-18T05:06:50;26.80;;;12.48;;
72559;SDS011;62987;52.382;9.752;2023-11-18T05:51:38;25.80;;;11.32;;
72559;SDS011;62987;52.382;9.752;2023-11-18T05:55:02;32.80;;;13.55;;
72559;SDS011;62987;52.382;9.752;2023-11-18T05:58:45;27.13;;;12.77;;
72559;SDS011;62987;52.382;9.752;2023-11-18T06:02:03;30.75;;;12.00;;
72559;SDS011;62987;52.382;9.752;2023-11-18T06:04:32;33.22;;;14.48;;
72559;SDS011;62987;52.382;9.752;2023-11-18T06:07:00;29.25;;;13.13;;
72559;SDS011;62987;52.382;9.752;2023-11-18T06:09:29;30.77;;;13.80;;
72559;SDS011;62987;52.382;9.752;2023-11-18T06:11:57;30.75;;;11.95;;
72559;SDS011;62987;52.382;9.752;2023-11-18T06:14:27;30.77;;;12.88;;
72559;SDS011;62987;52.382;9.752;2023-11-18T06:16:55;30.17;;;12.52;;
72559;SDS011;62987;52.382;9.752;2023-11-18T06:19:27;34.22;;;13.57;;
72559;SDS011;62987;52.382;9.752;2023-11-18T06:21:56;31.85;;;13.90;;
72559;SDS011;62987;52.382;9.752;2023-11-18T06:24:24;27.95;;;13.02;;
72559;SDS011;62987;52.382;9.752;2023-11-18T06:26:53;30.38;;;12.55;;
72559;SDS011;62987;52.382;9.752;2023-11-18T06:29:21;31.48;;;12.35;;
72559;SDS011;62987;52.382;9.752;2023-11-18T06:31:50;37.08;;;14.98;;
72559;SDS011;62987;52.382;9.752;2023-11-18T06:34:19;34.20;;;14.27;;
72559;SDS011;62987;52.382;9.752;2023-11-18T06:36:49;29.45;;;14.13;;
72559;SDS011;62987;52.382;9.752;2023-11-18T06:39:17;43.38;;;16.83;;
72559;SDS011;62987;52.382;9.752;2023-11-18T06:41:46;37.80;;;14.15;;
72559;SDS011;62987;52.382;9.752;2023-11-18T06:44:18;32.95;;;13.60;;
72559;SDS011;62987;52.382;9.752;2023-11-18T06:46:50;34.10;;;13.57;;
72559;SDS011;62987;52.382;9.752;2023-11-18T06:49:19;35.22;;;13.27;;
72559;SDS011;62987;52.382;9.752;2023-11-18T06:51:48;40.38;;;15.07;;
72559;SDS011;62987;52.382;9.752;2023-11-18T06:54:17;31.88;;;14.52;;
72559;SDS011;62987;52.382;9.752;2023-11-18T06:56:48;35.55;;;14.98;;
72559;SDS011;62987;52.382;9.752;2023-11-18T06:59:19;39.25;;;16.90;;
72559;SDS011;62987;52.382;9.752;2023-11-18T07:04:34;35.47;;;14.20;;
72559;SDS011;62987;52.382;9.752;2023-11-18T07:07:02;36.85;;;14.85;;
72559;SDS011;62987;52.382;9.752;2023-11-18T07:09:31;43.63;;;16.70;;
72559;SDS011;62987;52.382;9.752;2023-11-18T07:12:03;41.53;;;15.88;;
72559;SDS011;62987;52.382;9.752;2023-11-18T07:14:31;41.83;;;16.52;;
72559;SDS011;62987;52.382;9.752;2023-11-18T07:17:00;45.95;;;15.93;;
72559;SDS011;62987;52.382;9.752;2023-11-18T07:19:28;41.30;;;16.25;;
72559;SDS011;62987;52.382;9.752;2023-11-18T07:21:59;40.58;;;15.93;;
72559;SDS011;62987;52.382;9.752;2023-11-18T07:24:27;47.13;;;17.73;;
72559;SDS011;62987;52.382;9.752;2023-11-18T07:26:56;42.95;;;17.02;;
72559;SDS011;62987;52.382;9.752;2023-11-18T07:34:50;53.15;;;18.55;;
72559;SDS011;62987;52.382;9.752;2023-11-18T07:50:58;50.65;;;20.17;;
72559;SDS011;62987;52.382;9.752;2023-11-18T07:56:39;45.60;;;16.58;;
72559;SDS011;62987;52.382;9.752;2023-11-18T08:00:16;45.35;;;16.65;;
72559;SDS011;62987;52.382;9.752;2023-11-18T08:05:39;42.72;;;15.75;;
72559;SDS011;62987;52.382;9.752;2023-11-18T08:09:02;45.15;;;18.40;;
72559;SDS011;62987;52.382;9.752;2023-11-18T08:14:34;41.28;;;13.88;;
72559;SDS011;62987;52.382;9.752;2023-11-18T08:17:03;42.05;;;16.48;;
72559;SDS011;62987;52.382;9.752;2023-11-18T08:19:32;44.78;;;17.92;;
72559;SDS011;62987;52.382;9.752;2023-11-18T08:22:02;42.38;;;17.40;;
72559;SDS011;62987;52.382;9.752;2023-11-18T08:24:30;45.10;;;16.15;;
72559;SDS011;62987;52.382;9.752;2023-11-18T08:27:00;45.00;;;16.90;;
72559;SDS011;62987;52.382;9.752;2023-11-18T08:29:32;46.25;;;15.95;;
72559;SDS011;62987;52.382;9.752;2023-11-18T08:32:02;36.30;;;15.13;;
72559;SDS011;62987;52.382;9.752;2023-11-18T08:34:33;42.63;;;16.02;;
72559;SDS011;62987;52.382;9.752;2023-11-18T08:37:20;43.40;;;16.98;;
72559;SDS011;62987;52.382;9.752;2023-11-18T08:40:04;37.08;;;14.38;;
72559;SDS011;62987;52.382;9.752;2023-11-18T08:42:50;51.55;;;18.90;;
72559;SDS011;62987;52.382;9.752;2023-11-18T08:45:54;36.45;;;13.50;;
72559;SDS011;62987;52.382;9.752;2023-11-18T08:48:46;40.72;;;15.50;;
72559;SDS011;62987;52.382;9.752;2023-11-18T08:51:41;37.00;;;12.85;;
72559;SDS011;62987;52.382;9.752;2023-11-18T08:54:18;38.67;;;14.30;;
72559;SDS011;62987;52.382;9.752;2023-11-18T08:57:02;33.03;;;13.90;;
72559;SDS011;62987;52.382;9.752;2023-11-18T08:59:53;34.28;;;12.98;;
72559;SDS011;62987;52.382;9.752;2023-11-18T09:02:27;33.60;;;11.98;;
72559;SDS011;62987;52.382;9.752;2023-11-18T09:05:04;38.60;;;14.30;;
72559;SDS011;62987;52.382;9.752;2023-11-18T09:07:39;39.55;;;13.02;;
72559;SDS011;62987;52.382;9.752;2023-11-18T09:10:10;32.10;;;12.85;;
72559;SDS011;62987;52.382;9.752;2023-11-18T09:12:39;38.92;;;12.68;;
72559;SDS011;62987;52.382;9.752;2023-11-18T09:15:11;35.67;;;13.50;;
72559;SDS011;62987;52.382;9.752;2023-11-18T09:17:51;39.10;;;15.25;;
72559;SDS011;62987;52.382;9.752;2023-11-18T09:20:20;39.05;;;14.63;;
72559;SDS011;62987;52.382;9.752;2023-11-18T09:22:49;40.90;;;14.52;;
72559;SDS011;62987;52.382;9.752;2023-11-18T09:25:22;29.98;;;12.10;;
72559;SDS011;62987;52.382;9.752;2023-11-18T09:27:51;27.02;;;12.68;;
72559;SDS011;62987;52.382;9.752;2023-11-18T09:30:19;36.13;;;13.65;;
72559;SDS011;62987;52.382;9.752;2023-11-18T09:32:52;27.38;;;10.63;;
72559;SDS011;62987;52.382;9.752;2023-11-18T09:35:21;33.53;;;13.45;;
72559;SDS011;62987;52.382;9.752;2023-11-18T09:37:50;29.38;;;12.45;;
72559;SDS011;62987;52.382;9.752;2023-11-18T09:40:19;25.90;;;12.25;;
72559;SDS011;62987;52.382;9.752;2023-11-18T09:42:53;28.90;;;12.77;;
72559;SDS011;62987;52.382;9.752;2023-11-18T09:47:36;30.23;;;12.10;;
72559;SDS011;62987;52.382;9.752;2023-11-18T09:51:27;27.27;;;11.10;;
72559;SDS011;62987;52.382;9.752;2023-11-18T09:54:00;27.02;;;11.07;;
72559;SDS011;62987;52.382;9.752;2023-11-18T09:56:35;27.58;;;10.27;;
72559;SDS011;62987;52.382;9.752;2023-11-18T09:59:15;25.52;;;10.05;;
72559;SDS011;62987;52.382;9.752;2023-11-18T10:01:48;28.45;;;10.60;;
72559;SDS011;62987;52.382;9.752;2023-11-18T10:04:20;28.60;;;10.40;;
72559;SDS011;62987;52.382;9.752;2023-11-18T10:06:56;23.58;;;10.40;;
72559;SDS011;62987;52.382;9.752;2023-11-18T10:09:24;28.80;;;10.27;;
72559;SDS011;62987;52.382;9.752;2023-11-18T10:11:56;25.50;;;10.82;;
72559;SDS011;62987;52.382;9.752;2023-11-18T10:14:32;26.05;;;9.27;;
72559;SDS011;62987;52.382;9.752;2023-11-18T10:17:04;24.02;;;8.93;;
72559;SDS011;62987;52.382;9.752;2023-11-18T10:19:50;18.65;;;7.80;;
72559;SDS011;62987;52.382;9.752;2023-11-18T10:22:24;21.95;;;7.97;;
72559;SDS011;62987;52.382;9.752;2023-11-18T10:24:55;21.40;;;8.52;;
72559;SDS011;62987;52.382;9.752;2023-11-18T10:27:25;19.48;;;8.23;;
72559;SDS011;62987;52.382;9.752;2023-11-18T10:30:51;14.70;;;5.95;;
72559;SDS011;62987;52.382;9.752;2023-11-18T10:33:19;15.65;;;6.15;;
72559;SDS011;62987;52.382;9.752;2023-11-18T10:35:51;12.88;;;6.47;;
72559;SDS011;62987;52.382;9.752;2023-11-18T10:38:22;14.55;;;5.43;;
72559;SDS011;62987;52.382;9.752;2023-11-18T10:40:53;17.52;;;6.28;;
72559;SDS011;62987;52.382;9.752;2023-11-18T10:43:23;13.30;;;5.93;;
72559;SDS011;62987;52.382;9.752;2023-11-18T10:45:53;16.40;;;7.43;;
72559;SDS011;62987;52.382;9.752;2023-11-18T10:48:42;14.45;;;5.75;;
72559;SDS011;62987;52.382;9.752;2023-11-18T10:51:15;16.88;;;5.63;;
72559;SDS011;62987;52.382;9.752;2023-11-18T10:53:46;12.52;;;5.63;;
72559;SDS011;62987;52.382;9.752;2023-11-18T10:58:55;12.27;;;4.32;;
72559;SDS011;62987;52.382;9.752;2023-11-18T11:01:30;13.60;;;5.70;;
72559;SDS011;62987;52.382;9.752;2023-11-18T11:03:59;19.38;;;5.30;;
72559;SDS011;62987;52.382;9.752;2023-11-18T11:06:32;12.85;;;4.88;;
72559;SDS011;62987;52.382;9.752;2023-11-18T11:09:01;8.32;;;3.97;;
72559;SDS011;62987;52.382;9.752;2023-11-18T11:11:38;10.45;;;3.65;;
72559;SDS011;62987;52.382;9.752;2023-11-18T11:14:08;13.75;;;4.50;;
72559;SDS011;62987;52.382;9.752;2023-11-18T11:16:41;10.88;;;5.25;;
72559;SDS011;62987;52.382;9.752;2023-11-18T11:19:13;10.52;;;4.47;;
72559;SDS011;62987;52.382;9.752;2023-11-18T11:21:50;11.20;;;5.32;;
72559;SDS011;62987;52.382;9.752;2023-11-18T11:24:26;11.85;;;4.57;;
72559;SDS011;62987;52.382;9.752;2023-11-18T11:27:04;10.45;;;3.20;;
72559;SDS011;62987;52.382;9.752;2023-11-18T11:29:50;9.25;;;3.08;;
72559;SDS011;62987;52.382;9.752;2023-11-18T11:32:26;8.82;;;3.25;;
72559;SDS011;62987;52.382;9.752;2023-11-18T11:35:00;8.57;;;4.28;;
72559;SDS011;62987;52.382;9.752;2023-11-18T11:37:34;7.93;;;2.88;;
72559;SDS011;62987;52.382;9.752;2023-11-18T11:40:07;7.53;;;3.17;;
72559;SDS011;62987;52.382;9.752;2023-11-18T11:42:37;7.50;;;3.42;;
72559;SDS011;62987;52.382;9.752;2023-11-18T11:45:08;7.63;;;3.53;;
72559;SDS011;62987;52.382;9.752;2023-11-18T11:47:49;5.57;;;2.88;;
72559;SDS011;62987;52.382;9.752;2023-11-18T11:50:19;6.60;;;3.28;;
72559;SDS011;62987;52.382;9.752;2023-11-18T11:52:59;7.00;;;2.80;;
72559;SDS011;62987;52.382;9.752;2023-11-18T11:55:36;6.78;;;3.13;;
72559;SDS011;62987;52.382;9.752;2023-11-18T11:58:25;6.75;;;2.85;;
72559;SDS011;62987;52.382;9.752;2023-11-18T12:00:54;5.32;;;2.20;;
72559;SDS011;62987;52.382;9.752;2023-11-18T12:03:23;6.22;;;3.05;;
72559;SDS011;62987;52.382;9.752;2023-11-18T12:05:54;8.68;;;3.10;;
72559;SDS011;62987;52.382;9.752;2023-11-18T12:08:39;5.80;;;2.88;;
72559;SDS011;62987;52.382;9.752;2023-11-18T12:11:11;5.82;;;2.33;;
72559;SDS011;62987;52.382;9.752;2023-11-18T12:13:55;8.85;;;3.00;;
72559;SDS011;62987;52.382;9.752;2023-11-18T12:19:33;8.55;;;2.83;;
72559;SDS011;62987;52.382;9.752;2023-11-18T12:22:12;6.15;;;2.70;;
72559;SDS011;62987;52.382;9.752;2023-11-18T12:24:45;8.18;;;3.35;;
72559;SDS011;62987;52.382;9.752;2023-11-18T12:27:42;8.82;;;3.25;;
72559;SDS011;62987;52.382;9.752;2023-11-18T12:30:37;7.97;;;4.93;;
72559;SDS011;62987;52.382;9.752;2023-11-18T12:33:10;9.70;;;3.88;;
72559;SDS011;62987;52.382;9.752;2023-11-18T12:39:06;9.82;;;3.95;;
72559;SDS011;62987;52.382;9.752;2023-11-18T12:42:02;9.85;;;4.28;;
72559;SDS011;62987;52.382;9.752;2023-11-18T12:47:18;7.65;;;3.03;;
72559;SDS011;62987;52.382;9.752;2023-11-18T12:49:55;10.13;;;4.32;;
72559;SDS011;62987;52.382;9.752;2023-11-18T12:52:27;10.40;;;4.13;;
72559;SDS011;62987;52.382;9.752;2023-11-18T12:54:56;9.07;;;3.90;;
72559;SDS011;62987;52.382;9.752;2023-11-18T12:57:26;8.68;;;4.57;;
72559;SDS011;62987;52.382;9.752;2023-11-18T12:59:59;10.18;;;4.65;;
72559;SDS011;62987;52.382;9.752;2023-11-18T13:02:31;5.97;;;3.35;;
72559;SDS011;62987;52.382;9.752;2023-11-18T13:05:03;8.15;;;3.95;;
72559;SDS011;62987;52.382;9.752;2023-11-18T13:07:35;8.35;;;4.05;;
72559;SDS011;62987;52.382;9.752;2023-11-18T13:10:07;10.32;;;3.72;;
72559;SDS011;62987;52.382;9.752;2023-11-18T13:12:36;11.30;;;4.07;;
72559;SDS011;62987;52.382;9.752;2023-11-18T13:15:05;8.25;;;4.05;;
72559;SDS011;62987;52.382;9.752;2023-11-18T13:17:35;7.60;;;3.67;;
72559;SDS011;62987;52.382;9.752;2023-11-18T13:20:11;7.22;;;3.40;;
72559;SDS011;62987;52.382;9.752;2023-11-18T13:22:43;9.07;;;3.47;;
72559;SDS011;62987;52.382;9.752;2023-11-18T13:25:15;8.73;;;3.65;;
72559;SDS011;62987;52.382;9.752;2023-11-18T13:27:45;7.57;;;3.58;;
72559;SDS011;62987;52.382;9.752;2023-11-18T13:30:44;9.93;;;4.72;;
72559;SDS011;62987;52.382;9.752;2023-11-18T13:33:13;7.25;;;3.75;;
72559;SDS011;62987;52.382;9.752;2023-11-18T13:35:41;7.72;;;3.92;;
72559;SDS011;62987;52.382;9.752;2023-11-18T13:38:11;11.23;;;4.80;;
72559;SDS011;62987;52.382;9.752;2023-11-18T13:40:44;10.45;;;3.70;;
72559;SDS011;62987;52.382;9.752;2023-11-18T13:43:13;8.45;;;4.30;;
72559;SDS011;62987;52.382;9.752;2023-11-18T13:45:42;9.93;;;3.88;;
72559;SDS011;62987;52.382;9.752;2023-11-18T13:48:12;9.82;;;4.20;;
72559;SDS011;62987;52.382;9.752;2023-11-18T13:50:40;11.30;;;4.72;;
72559;SDS011;62987;52.382;9.752;2023-11-18T13:53:10;11.02;;;5.65;;
72559;SDS011;62987;52.382;9.752;2023-11-18T13:55:39;9.27;;;3.55;;
72559;SDS011;62987;52.382;9.752;2023-11-18T13:58:08;8.75;;;3.90;;
72559;SDS011;62987;52.382;9.752;2023-11-18T14:00:38;9.40;;;3.92;;
72559;SDS011;62987;52.382;9.752;2023-11-18T14:03:08;7.60;;;3.67;;
72559;SDS011;62987;52.382;9.752;2023-11-18T14:05:40;8.65;;;3.15;;
72559;SDS011;62987;52.382;9.752;2023-11-18T14:08:16;11.85;;;4.68;;
72559;SDS011;62987;52.382;9.752;2023-11-18T14:13:29;11.23;;;4.82;;
72559;SDS011;62987;52.382;9.752;2023-11-18T14:15:58;11.77;;;5.07;;
72559;SDS011;62987;52.382;9.752;2023-11-18T14:18:26;20.55;;;6.18;;
72559;SDS011;62987;52.382;9.752;2023-11-18T14:20:57;13.23;;;5.43;;
72559;SDS011;62987;52.382;9.752;2023-11-18T14:23:27;15.25;;;5.78;;
72559;SDS011;62987;52.382;9.752;2023-11-18T14:25:56;9.27;;;4.00;;
72559;SDS011;62987;52.382;9.752;2023-11-18T14:28:44;11.60;;;4.60;;
72559;SDS011;62987;52.382;9.752;2023-11-18T14:31:13;7.90;;;4.05;;
72559;SDS011;62987;52.382;9.752;2023-11-18T14:33:42;15.98;;;6.45;;
72559;SDS011;62987;52.382;9.752;2023-11-18T14:36:10;7.45;;;3.08;;
72559;SDS011;62987;52.382;9.752;2023-11-18T14:38:39;7.55;;;3.85;;
